createdAt,value
2023-02-19T00:00:05.764Z,52.48
2023-02-19T00:02:53.927Z,52.62
2023-02-19T00:05:21.966Z,52.75
2023-02-19T00:07:50.173Z,52.63
2023-02-19T00:10:18.889Z,52.89
2023-02-19T00:12:46.706Z,52.71
2023-02-19T00:15:15.010Z,52.67
2023-02-19T00:17:42.882Z,52.78
2023-02-19T00:20:11.291Z,52.62
2023-02-19T00:22:41.433Z,52.63
2023-02-19T00:25:15.376Z,52.40
2023-02-19T00:27:43.542Z,52.57
2023-02-19T00:30:14.241Z,52.44
2023-02-19T00:32:50.865Z,52.53
2023-02-19T00:35:18.814Z,52.61
2023-02-19T00:37:46.574Z,52.59
2023-02-19T00:40:15.193Z,52.80
2023-02-19T00:42:43.381Z,53.06
2023-02-19T00:45:11.395Z,53.20
2023-02-19T00:47:42.424Z,53.13
2023-02-19T00:50:12.729Z,53.47
2023-02-19T00:52:42.125Z,53.72
2023-02-19T00:55:10.978Z,53.58
2023-02-19T00:57:39.357Z,53.52
2023-02-19T01:00:10.161Z,53.24
2023-02-19T01:02:38.286Z,53.27
2023-02-19T01:05:08.815Z,53.21
2023-02-19T01:07:38.343Z,53.06
2023-02-19T01:10:08.814Z,53.15
2023-02-19T01:12:36.580Z,53.17
2023-02-19T01:15:04.749Z,53.13
2023-02-19T01:17:32.722Z,53.08
2023-02-19T01:20:00.454Z,53.08
2023-02-19T01:22:28.956Z,53.13
2023-02-19T01:24:57.221Z,53.67
2023-02-19T01:27:24.971Z,53.82
2023-02-19T01:29:53.281Z,53.68
2023-02-19T01:32:22.775Z,53.93
2023-02-19T01:34:50.628Z,53.91
2023-02-19T01:37:18.401Z,54.05
2023-02-19T01:39:47.883Z,54.06
2023-02-19T01:42:18.658Z,53.95
2023-02-19T01:44:47.329Z,53.74
2023-02-19T01:47:19.736Z,53.81
2023-02-19T01:49:55.877Z,53.74
2023-02-19T01:52:38.133Z,53.76
2023-02-19T01:55:12.524Z,53.88
2023-02-19T01:57:46.814Z,53.81
2023-02-19T02:00:18.335Z,53.95
2023-02-19T02:02:53.016Z,53.83
2023-02-19T02:06:12.219Z,53.81
2023-02-19T02:08:59.826Z,53.90
2023-02-19T02:11:28.538Z,53.82
2023-02-19T02:14:00.735Z,53.77
2023-02-19T02:16:56.085Z,53.78
2023-02-19T02:19:49.662Z,53.76
2023-02-19T02:22:47.475Z,53.84
2023-02-19T02:26:02.222Z,54.05
2023-02-19T02:29:16.399Z,53.93
2023-02-19T02:31:59.399Z,53.91
2023-02-19T02:34:54.456Z,53.99
2023-02-19T02:37:28.208Z,54.47
2023-02-19T02:40:00.198Z,55.98
2023-02-19T02:42:27.971Z,56.37
2023-02-19T02:45:37.726Z,56.77
2023-02-19T02:48:40.348Z,57.00
2023-02-19T02:51:31.276Z,57.06
2023-02-19T02:54:38.637Z,57.63
2023-02-19T02:57:14.929Z,56.78
2023-02-19T02:59:45.873Z,56.72
2023-02-19T03:02:25.262Z,56.58
2023-02-19T03:05:39.003Z,56.45
2023-02-19T03:08:17.901Z,56.48
2023-02-19T03:11:23.990Z,56.51
2023-02-19T03:14:28.276Z,56.50
2023-02-19T03:17:34.534Z,56.80
2023-02-19T03:20:11.247Z,57.25
2023-02-19T03:22:42.954Z,57.25
2023-02-19T03:25:37.902Z,57.56
2023-02-19T03:28:16.144Z,57.71
2023-02-19T03:30:53.807Z,58.10
2023-02-19T03:33:27.199Z,58.12
2023-02-19T03:36:08.413Z,58.23
2023-02-19T03:38:59.877Z,58.12
2023-02-19T03:41:43.770Z,57.64
2023-02-19T03:44:33.836Z,57.70
2023-02-19T03:47:20.904Z,57.77
2023-02-19T03:50:19.832Z,57.78
2023-02-19T03:52:58.961Z,57.92
2023-02-19T03:56:02.797Z,57.83
2023-02-19T03:58:54.998Z,57.89
2023-02-19T04:01:38.097Z,57.62
2023-02-19T04:04:47.894Z,57.62
2023-02-19T04:07:16.049Z,57.56
2023-02-19T04:09:49.922Z,57.48
2023-02-19T04:12:21.043Z,57.16
2023-02-19T04:15:07.807Z,57.06
2023-02-19T04:17:41.921Z,57.09
2023-02-19T04:20:13.437Z,57.15
2023-02-19T04:22:45.119Z,57.03
2023-02-19T04:25:13.074Z,57.12
2023-02-19T04:27:45.584Z,57.14
2023-02-19T04:30:15.932Z,57.66
2023-02-19T04:32:43.641Z,57.76
2023-02-19T04:35:12.768Z,58.24
2023-02-19T04:37:42.074Z,58.14
2023-02-19T04:40:12.383Z,58.15
2023-02-19T04:42:40.162Z,58.03
2023-02-19T04:45:08.473Z,58.44
2023-02-19T04:47:36.197Z,58.44
2023-02-19T04:50:04.464Z,58.52
2023-02-19T04:52:33.546Z,58.58
2023-02-19T04:55:01.358Z,58.38
2023-02-19T04:57:29.141Z,58.42
2023-02-19T04:59:57.500Z,58.22
2023-02-19T05:02:25.553Z,58.34
2023-02-19T05:04:57.134Z,58.14
2023-02-19T05:07:24.896Z,58.27
2023-02-19T05:09:53.571Z,58.27
2023-02-19T05:12:21.453Z,58.36
2023-02-19T05:14:49.706Z,59.11
2023-02-19T05:17:17.960Z,59.02
2023-02-19T05:19:47.745Z,58.98
2023-02-19T05:22:15.508Z,58.89
2023-02-19T05:24:43.938Z,58.84
2023-02-19T05:27:11.636Z,59.01
2023-02-19T05:29:39.798Z,58.95
2023-02-19T05:32:08.466Z,59.16
2023-02-19T05:34:36.436Z,59.10
2023-02-19T05:37:06.708Z,59.57
2023-02-19T05:39:34.748Z,59.55
2023-02-19T05:42:02.974Z,59.89
2023-02-19T05:44:30.962Z,60.33
2023-02-19T05:46:58.668Z,62.04
2023-02-19T05:49:29.399Z,73.88
2023-02-19T05:51:57.399Z,75.59
2023-02-19T05:54:25.540Z,62.04
2023-02-19T05:56:53.375Z,64.86
2023-02-19T05:59:27.874Z,51.86
2023-02-19T06:01:56.541Z,48.75
2023-02-19T06:04:25.310Z,48.30
2023-02-19T06:06:54.836Z,49.17
2023-02-19T06:09:23.699Z,50.76
2023-02-19T06:11:51.445Z,51.27
2023-02-19T06:14:19.674Z,52.01
2023-02-19T06:16:47.540Z,54.28
2023-02-19T06:19:16.309Z,56.90
2023-02-19T06:21:44.020Z,56.20
2023-02-19T06:24:11.884Z,56.62
2023-02-19T06:26:39.670Z,56.97
2023-02-19T06:29:07.616Z,58.94
2023-02-19T06:31:35.503Z,59.85
2023-02-19T06:34:06.671Z,59.38
2023-02-19T06:36:35.456Z,60.48
2023-02-19T06:39:06.124Z,60.62
2023-02-19T06:41:34.236Z,60.58
2023-02-19T06:44:02.590Z,60.19
2023-02-19T06:46:30.469Z,60.55
2023-02-19T06:49:00.118Z,60.27
2023-02-19T06:51:29.736Z,60.10
2023-02-19T06:54:02.257Z,61.15
2023-02-19T06:56:46.080Z,61.33
2023-02-19T06:59:19.664Z,61.04
2023-02-19T07:01:47.544Z,62.25
2023-02-19T07:04:18.085Z,66.54
2023-02-19T07:06:46.105Z,68.81
2023-02-19T07:09:14.733Z,63.73
2023-02-19T07:11:44.916Z,57.44
2023-02-19T07:14:17.173Z,49.45
2023-02-19T07:16:47.359Z,49.72
2023-02-19T07:19:16.677Z,51.24
2023-02-19T07:21:44.435Z,54.56
2023-02-19T07:24:12.643Z,55.63
2023-02-19T07:26:43.854Z,56.51
2023-02-19T07:29:11.632Z,56.32
2023-02-19T07:31:39.586Z,59.14
2023-02-19T07:34:07.874Z,59.13
2023-02-19T07:36:35.922Z,58.54
2023-02-19T07:39:05.359Z,59.30
2023-02-19T07:41:33.250Z,59.58
2023-02-19T07:44:01.674Z,59.45
2023-02-19T07:46:31.059Z,59.48
2023-02-19T07:49:08.215Z,61.01
2023-02-19T07:51:39.888Z,61.66
2023-02-19T07:54:10.210Z,62.00
2023-02-19T07:56:38.826Z,72.04
2023-02-19T07:59:06.525Z,60.77
2023-02-19T08:01:54.577Z,53.63
2023-02-19T08:04:22.823Z,51.18
2023-02-19T08:06:52.826Z,51.03
2023-02-19T08:09:22.758Z,53.23
2023-02-19T08:12:11.704Z,53.23
2023-02-19T08:14:39.480Z,52.87
2023-02-19T08:17:07.374Z,54.15
2023-02-19T08:19:35.144Z,53.58
2023-02-19T08:22:05.926Z,54.67
2023-02-19T08:24:35.254Z,54.96
2023-02-19T08:27:02.942Z,55.23
2023-02-19T08:29:31.728Z,55.43
2023-02-19T08:32:03.317Z,54.96
2023-02-19T08:34:31.906Z,55.23
2023-02-19T08:37:02.322Z,55.13
2023-02-19T08:39:30.010Z,55.69
2023-02-19T08:41:58.995Z,55.13
2023-02-19T08:44:27.914Z,55.68
2023-02-19T08:46:55.605Z,56.07
2023-02-19T08:49:27.650Z,55.65
2023-02-19T08:51:55.377Z,55.20
2023-02-19T08:54:23.054Z,55.22
2023-02-19T08:56:51.148Z,55.88
2023-02-19T08:59:22.040Z,56.90
2023-02-19T09:01:50.362Z,56.82
2023-02-19T09:04:18.769Z,56.85
2023-02-19T09:06:46.481Z,56.82
2023-02-19T09:09:16.865Z,57.11
2023-02-19T09:11:44.735Z,57.32
2023-02-19T09:14:12.487Z,57.44
2023-02-19T09:16:42.608Z,57.16
2023-02-19T09:19:10.614Z,57.47
2023-02-19T09:21:38.811Z,57.31
2023-02-19T09:24:09.848Z,57.44
2023-02-19T09:26:38.658Z,57.45
2023-02-19T09:29:06.694Z,57.57
2023-02-19T09:31:35.794Z,57.42
2023-02-19T09:34:06.229Z,57.40
2023-02-19T09:36:34.430Z,57.09
2023-02-19T09:39:02.435Z,57.14
2023-02-19T09:41:36.094Z,57.44
2023-02-19T09:44:09.840Z,57.36
2023-02-19T09:46:48.730Z,57.49
2023-02-19T09:49:41.525Z,57.40
2023-02-19T09:52:19.870Z,57.42
2023-02-19T09:54:48.182Z,58.36
2023-02-19T09:57:23.345Z,58.12
2023-02-19T10:00:11.241Z,58.24
2023-02-19T10:02:40.107Z,57.25
2023-02-19T10:05:14.647Z,56.89
2023-02-19T10:07:51.133Z,56.92
2023-02-19T10:10:33.473Z,57.04
2023-02-19T10:13:33.234Z,56.92
2023-02-19T10:16:10.057Z,56.65
2023-02-19T10:18:43.486Z,56.06
2023-02-19T10:21:31.929Z,55.84
2023-02-19T10:24:04.846Z,56.03
2023-02-19T10:26:38.038Z,56.17
2023-02-19T10:29:07.239Z,56.51
2023-02-19T10:31:35.211Z,56.47
2023-02-19T10:34:03.134Z,56.72
2023-02-19T10:36:43.550Z,56.63
2023-02-19T10:39:50.685Z,57.03
2023-02-19T10:42:23.397Z,56.94
2023-02-19T10:45:02.367Z,56.79
2023-02-19T10:47:33.520Z,57.20
2023-02-19T10:50:04.693Z,56.63
2023-02-19T10:52:36.923Z,56.12
2023-02-19T10:55:29.242Z,56.14
2023-02-19T10:57:58.377Z,56.27
2023-02-19T11:00:30.698Z,56.17
2023-02-19T11:03:23.911Z,56.14
2023-02-19T11:06:02.068Z,55.81
2023-02-19T11:08:53.834Z,55.88
2023-02-19T11:11:33.800Z,55.57
2023-02-19T11:14:34.940Z,55.59
2023-02-19T11:17:09.038Z,55.32
2023-02-19T11:19:44.804Z,54.98
2023-02-19T11:22:36.104Z,54.96
2023-02-19T11:25:22.590Z,55.11
2023-02-19T11:28:25.807Z,54.83
2023-02-19T11:30:54.101Z,54.63
2023-02-19T11:33:28.095Z,54.62
2023-02-19T11:37:07.137Z,54.51
2023-02-19T11:39:37.970Z,54.40
2023-02-19T11:42:39.366Z,54.02
2023-02-19T11:45:26.089Z,54.18
2023-02-19T11:48:35.412Z,54.33
2023-02-19T11:51:31.606Z,53.94
2023-02-19T11:54:32.170Z,52.55
2023-02-19T11:57:51.466Z,52.06
2023-02-19T12:00:41.283Z,50.94
2023-02-19T12:03:34.737Z,50.28
2023-02-19T12:06:27.583Z,49.86
2023-02-19T12:09:10.606Z,49.93
2023-02-19T12:11:59.805Z,49.82
2023-02-19T12:15:00.770Z,49.56
2023-02-19T12:18:11.439Z,48.91
2023-02-19T12:21:16.028Z,49.40
2023-02-19T12:23:58.215Z,49.11
2023-02-19T12:26:35.704Z,48.80
2023-02-19T12:29:34.550Z,48.35
2023-02-19T12:32:50.137Z,48.81
2023-02-19T12:36:05.793Z,49.83
2023-02-19T12:39:05.526Z,49.63
2023-02-19T12:42:16.423Z,48.83
2023-02-19T12:44:52.257Z,48.16
2023-02-19T12:47:28.851Z,48.16
2023-02-19T12:50:13.774Z,48.62
2023-02-19T12:52:55.284Z,47.26
2023-02-19T12:55:36.576Z,47.33
2023-02-19T12:58:12.754Z,46.41
2023-02-19T13:00:56.806Z,46.91
2023-02-19T13:03:41.628Z,47.77
2023-02-19T13:06:50.234Z,47.90
2023-02-19T13:09:37.727Z,48.46
2023-02-19T13:12:32.071Z,48.17
2023-02-19T13:15:04.016Z,49.43
2023-02-19T13:17:45.392Z,50.18
2023-02-19T13:20:27.693Z,50.19
2023-02-19T13:23:38.334Z,50.31
2023-02-19T13:27:00.518Z,50.24
2023-02-19T13:29:48.963Z,50.66
2023-02-19T13:32:56.588Z,51.19
2023-02-19T13:36:10.571Z,51.27
2023-02-19T13:38:46.147Z,51.07
2023-02-19T13:41:40.486Z,50.69
2023-02-19T13:44:20.458Z,51.76
2023-02-19T13:46:53.335Z,52.32
2023-02-19T13:49:33.028Z,52.15
2023-02-19T13:52:29.728Z,52.02
2023-02-19T13:55:42.526Z,52.11
2023-02-19T13:58:33.568Z,52.49
2023-02-19T14:01:12.294Z,53.20
2023-02-19T14:04:06.813Z,53.42
2023-02-19T14:07:02.786Z,53.34
2023-02-19T14:09:45.897Z,53.31
2023-02-19T14:12:15.609Z,53.64
2023-02-19T14:14:53.141Z,53.69
2023-02-19T14:17:34.978Z,54.10
2023-02-19T14:20:08.815Z,53.91
2023-02-19T14:22:47.673Z,53.40
2023-02-19T14:25:29.613Z,53.80
2023-02-19T14:28:12.705Z,54.40
2023-02-19T14:30:57.670Z,54.34
2023-02-19T14:33:34.310Z,54.22
2023-02-19T14:36:17.307Z,54.55
2023-02-19T14:39:00.255Z,54.76
2023-02-19T14:41:32.624Z,54.86
2023-02-19T14:44:03.513Z,54.82
2023-02-19T14:46:41.586Z,55.01
2023-02-19T14:49:27.684Z,55.14
2023-02-19T14:52:08.925Z,55.43
2023-02-19T14:54:54.036Z,55.82
2023-02-19T14:57:39.095Z,55.35
2023-02-19T15:00:24.093Z,55.22
2023-02-19T15:02:59.080Z,55.69
2023-02-19T15:05:37.083Z,55.99
2023-02-19T15:08:14.440Z,55.64
2023-02-19T15:10:46.817Z,54.99
2023-02-19T15:13:28.009Z,55.74
2023-02-19T15:15:58.465Z,56.68
2023-02-19T15:18:30.464Z,57.21
2023-02-19T15:21:05.840Z,57.73
2023-02-19T15:23:36.281Z,57.81
2023-02-19T15:26:05.085Z,57.95
2023-02-19T15:28:34.572Z,57.41
2023-02-19T15:31:03.380Z,57.63
2023-02-19T15:33:32.542Z,58.03
2023-02-19T15:36:08.783Z,57.58
2023-02-19T15:38:38.218Z,57.81
2023-02-19T15:41:07.321Z,58.13
2023-02-19T15:44:25.014Z,58.76
2023-02-19T15:46:57.021Z,58.85
2023-02-19T15:49:43.184Z,59.08
2023-02-19T15:52:43.889Z,59.08
2023-02-19T15:55:38.643Z,60.25
2023-02-19T15:58:38.243Z,60.88
2023-02-19T16:01:31.151Z,60.07
2023-02-19T16:04:01.597Z,60.62
2023-02-19T16:06:31.357Z,61.36
2023-02-19T16:09:21.796Z,69.22
2023-02-19T16:11:56.834Z,74.87
2023-02-19T16:14:37.720Z,64.54
2023-02-19T16:17:07.736Z,53.25
2023-02-19T16:20:03.377Z,49.81
2023-02-19T16:22:42.766Z,50.61
2023-02-19T16:25:28.410Z,51.59
2023-02-19T16:28:00.355Z,52.67
2023-02-19T16:30:34.163Z,53.81
2023-02-19T16:33:21.723Z,55.23
2023-02-19T16:35:53.726Z,56.63
2023-02-19T16:38:22.936Z,56.96
2023-02-19T16:40:54.713Z,57.20
2023-02-19T16:43:42.363Z,59.06
2023-02-19T16:46:13.001Z,59.58
2023-02-19T16:48:41.845Z,60.11
2023-02-19T16:51:26.640Z,60.36
2023-02-19T16:53:54.407Z,60.57
2023-02-19T16:56:23.736Z,60.70
2023-02-19T16:58:54.586Z,61.24
2023-02-19T17:01:24.413Z,61.65
2023-02-19T17:04:02.772Z,67.78
2023-02-19T17:06:34.715Z,72.85
2023-02-19T17:09:02.680Z,65.49
2023-02-19T17:11:31.641Z,55.73
2023-02-19T17:13:59.424Z,51.88
2023-02-19T17:16:34.481Z,52.28
2023-02-19T17:19:05.829Z,54.84
2023-02-19T17:21:34.714Z,55.74
2023-02-19T17:24:03.641Z,56.14
2023-02-19T17:26:34.547Z,58.13
2023-02-19T17:29:07.059Z,58.38
2023-02-19T17:31:35.032Z,59.26
2023-02-19T17:34:02.793Z,61.24
2023-02-19T17:36:32.589Z,61.08
2023-02-19T17:39:04.733Z,65.17
2023-02-19T17:41:34.954Z,66.84
2023-02-19T17:44:08.801Z,63.59
2023-02-19T17:46:38.697Z,54.55
2023-02-19T17:49:12.427Z,51.10
2023-02-19T17:51:41.000Z,51.20
2023-02-19T17:54:09.415Z,52.67
2023-02-19T17:56:37.400Z,54.63
2023-02-19T17:59:05.547Z,56.33
2023-02-19T18:01:33.413Z,57.32
2023-02-19T18:04:06.689Z,57.53
2023-02-19T18:06:36.157Z,58.42
2023-02-19T18:09:04.041Z,58.51
2023-02-19T18:11:32.118Z,59.00
2023-02-19T18:14:00.548Z,60.42
2023-02-19T18:16:28.814Z,60.74
2023-02-19T18:19:01.803Z,63.46
2023-02-19T18:21:29.521Z,73.63
2023-02-19T18:23:57.428Z,70.24
2023-02-19T18:26:25.866Z,60.85
2023-02-19T18:28:56.083Z,54.68
2023-02-19T18:31:24.333Z,51.99
2023-02-19T18:33:52.830Z,52.48
2023-02-19T18:36:31.017Z,53.87
2023-02-19T18:38:59.192Z,55.61
2023-02-19T18:41:28.577Z,55.57
2023-02-19T18:43:56.281Z,57.63
2023-02-19T18:46:26.912Z,58.58
2023-02-19T18:48:56.449Z,59.16
2023-02-19T18:51:28.668Z,59.50
2023-02-19T18:53:58.793Z,60.58
2023-02-19T18:56:29.612Z,61.14
2023-02-19T18:59:04.414Z,68.22
2023-02-19T19:01:33.032Z,73.14
2023-02-19T19:04:03.099Z,63.47
2023-02-19T19:06:31.642Z,58.52
2023-02-19T19:08:59.547Z,51.13
2023-02-19T19:11:35.571Z,50.72
2023-02-19T19:14:04.150Z,51.67
2023-02-19T19:16:31.872Z,53.69
2023-02-19T19:19:00.649Z,54.76
2023-02-19T19:21:29.002Z,56.39
2023-02-19T19:23:57.230Z,58.14
2023-02-19T19:26:26.813Z,58.71
2023-02-19T19:28:55.124Z,59.62
2023-02-19T19:31:24.872Z,60.14
2023-02-19T19:33:53.261Z,60.95
2023-02-19T19:36:25.877Z,60.83
2023-02-19T19:38:54.751Z,66.83
2023-02-19T19:41:22.642Z,72.88
2023-02-19T19:43:51.202Z,67.93
2023-02-19T19:46:23.377Z,63.40
2023-02-19T19:48:53.089Z,53.95
2023-02-19T19:51:21.328Z,50.06
2023-02-19T19:53:55.459Z,51.46
2023-02-19T19:56:24.270Z,53.65
2023-02-19T19:58:56.821Z,54.48
2023-02-19T20:01:26.093Z,55.41
2023-02-19T20:03:54.101Z,57.16
2023-02-19T20:06:31.210Z,58.51
2023-02-19T20:09:00.163Z,60.07
2023-02-19T20:11:28.621Z,59.97
2023-02-19T20:13:59.469Z,60.15
2023-02-19T20:16:29.265Z,60.26
2023-02-19T20:19:01.862Z,60.64
2023-02-19T20:21:33.073Z,63.53
2023-02-19T20:24:02.137Z,74.82
2023-02-19T20:26:31.938Z,70.69
2023-02-19T20:29:00.884Z,61.91
2023-02-19T20:31:31.887Z,53.03
2023-02-19T20:34:02.135Z,50.70
2023-02-19T20:36:32.120Z,51.53
2023-02-19T20:39:04.238Z,53.19
2023-02-19T20:41:33.994Z,54.76
2023-02-19T20:44:06.792Z,55.87
2023-02-19T20:46:47.250Z,57.03
2023-02-19T20:49:23.808Z,58.06
2023-02-19T20:51:59.037Z,58.06
2023-02-19T20:54:34.073Z,59.56
2023-02-19T20:57:06.728Z,60.00
2023-02-19T20:59:35.612Z,60.13
2023-02-19T21:02:29.473Z,60.12
2023-02-19T21:05:02.119Z,60.97
2023-02-19T21:07:31.027Z,67.07
2023-02-19T21:10:00.739Z,73.96
2023-02-19T21:12:33.740Z,66.36
2023-02-19T21:15:02.471Z,64.28
2023-02-19T21:17:33.753Z,55.09
2023-02-19T21:20:04.988Z,50.19
2023-02-19T21:22:33.453Z,50.99
2023-02-19T21:25:02.886Z,51.72
2023-02-19T21:27:30.652Z,53.56
2023-02-19T21:29:58.808Z,54.76
2023-02-19T21:32:26.926Z,55.39
2023-02-19T21:34:55.813Z,56.27
2023-02-19T21:37:27.478Z,56.12
2023-02-19T21:39:58.704Z,57.28
2023-02-19T21:42:28.911Z,58.01
2023-02-19T21:44:58.028Z,59.19
2023-02-19T21:47:27.805Z,59.53
2023-02-19T21:49:58.266Z,60.13
2023-02-19T21:52:27.016Z,61.56
2023-02-19T21:54:56.281Z,66.57
2023-02-19T21:57:24.644Z,72.99
2023-02-19T21:59:56.005Z,66.73
2023-02-19T22:02:26.204Z,60.36
2023-02-19T22:04:55.421Z,51.84
2023-02-19T22:07:24.825Z,51.00
2023-02-19T22:10:02.906Z,52.57
2023-02-19T22:12:34.421Z,53.54
2023-02-19T22:15:05.344Z,54.90
2023-02-19T22:17:33.743Z,55.97
2023-02-19T22:20:06.012Z,56.94
2023-02-19T22:22:41.984Z,57.05
2023-02-19T22:25:11.023Z,58.86
2023-02-19T22:27:38.930Z,60.04
2023-02-19T22:30:07.858Z,61.49
2023-02-19T22:32:35.730Z,68.69
2023-02-19T22:35:04.359Z,67.62
2023-02-19T22:37:36.171Z,65.86
2023-02-19T22:40:06.078Z,61.84
2023-02-19T22:42:35.958Z,55.80
2023-02-19T22:45:06.637Z,52.59
2023-02-19T22:47:43.805Z,54.31
2023-02-19T22:50:23.029Z,56.00
2023-02-19T22:52:54.742Z,57.25
2023-02-19T22:55:24.727Z,59.23
2023-02-19T22:57:52.783Z,60.13
2023-02-19T23:00:21.867Z,63.73
2023-02-19T23:02:51.775Z,73.22
2023-02-19T23:05:20.502Z,70.55
2023-02-19T23:07:48.588Z,63.00
2023-02-19T23:10:17.028Z,60.22
2023-02-19T23:12:46.241Z,55.40
2023-02-19T23:15:16.428Z,53.29
2023-02-19T23:17:46.643Z,55.37
2023-02-19T23:20:14.860Z,57.62
2023-02-19T23:22:46.100Z,57.83
2023-02-19T23:25:15.592Z,58.51
2023-02-19T23:27:43.582Z,59.59
2023-02-19T23:30:13.953Z,59.94
2023-02-19T23:32:42.326Z,64.93
2023-02-19T23:35:11.706Z,74.74
2023-02-19T23:37:40.041Z,68.72
2023-02-19T23:40:10.646Z,65.92
2023-02-19T23:42:47.841Z,60.54
2023-02-19T23:45:17.460Z,53.43
2023-02-19T23:47:46.629Z,51.59
2023-02-19T23:50:17.056Z,52.97
2023-02-19T23:52:44.766Z,54.70
2023-02-19T23:55:13.969Z,56.57
2023-02-19T23:57:43.257Z,58.77
